Time;durP1;ratioP1;P1;durP2;ratioP2;P2;SDS_P1;SDS_P2;PMS_P1;PMS_P2;Temp;Humidity;BMP_temperature;BMP_pressure;BME280_temperature;BME280_humidity;BME280_pressure;Samples;Min_cycle;Max_cycle;Signal;HPM_P1;HPM_P2
2023/06/26 00:01:08;;;;;;;28.63;6.45;;;30.50;49.30;;;;;;5020286;28;20194;-67
2023/06/26 00:03:34;;;;;;;31.52;6.18;;;30.40;49.20;;;;;;5011123;28;20216;-64
2023/06/26 00:06:01;;;;;;;32.00;6.60;;;30.40;49.20;;;;;;5015804;28;20200;-62
2023/06/26 00:08:28;;;;;;;29.60;6.33;;;30.40;49.30;;;;;;5023461;28;20284;-62
2023/06/26 00:10:55;;;;;;;28.05;6.43;;;30.40;49.20;;;;;;5035667;28;20211;-63
2023/06/26 00:13:25;;;;;;;32.78;6.70;;;30.40;49.30;;;;;;5011112;28;20194;-62
2023/06/26 00:15:52;;;;;;;30.88;6.35;;;30.40;49.20;;;;;;5049129;28;20220;-64
2023/06/26 00:18:19;;;;;;;39.10;7.37;;;30.30;49.30;;;;;;5050595;28;20587;-62
2023/06/26 00:20:45;;;;;;;34.53;6.78;;;30.40;49.30;;;;;;5049854;28;20200;-62
2023/06/26 00:23:16;;;;;;;37.97;7.05;;;30.30;49.90;;;;;;5049685;28;20196;-66
2023/06/26 00:25:43;;;;;;;32.20;6.50;;;30.30;49.30;;;;;;5030554;28;20220;-65
2023/06/26 00:28:10;;;;;;;31.83;6.53;;;30.30;49.30;;;;;;5050715;28;20519;-69
2023/06/26 00:30:39;;;;;;;37.55;7.05;;;30.30;49.30;;;;;;5020235;28;20201;-64
2023/06/26 00:33:06;;;;;;;24.50;6.00;;;30.30;49.40;;;;;;5016736;28;20722;-66
2023/06/26 00:35:33;;;;;;;34.78;7.13;;;30.30;49.40;;;;;;5030457;28;20218;-70
2023/06/26 00:37:59;;;;;;;33.47;6.70;;;30.30;49.40;;;;;;5021566;28;20232;-65
2023/06/26 00:40:27;;;;;;;40.80;7.55;;;30.30;49.40;;;;;;5019515;28;20683;-67
2023/06/26 00:42:54;;;;;;;60.08;9.15;;;30.30;49.40;;;;;;5024506;28;20216;-63
2023/06/26 00:45:21;;;;;;;29.90;6.30;;;30.30;49.40;;;;;;5027989;28;20208;-65
2023/06/26 00:47:49;;;;;;;37.53;7.03;;;30.20;49.30;;;;;;5031531;28;20192;-71
2023/06/26 00:50:17;;;;;;;29.25;6.72;;;30.20;49.30;;;;;;5026685;28;20212;-66
2023/06/26 00:52:44;;;;;;;36.07;7.13;;;30.20;49.30;;;;;;5031464;28;20273;-64
2023/06/26 00:55:11;;;;;;;32.90;6.53;;;30.20;49.30;;;;;;5035997;28;20210;-70
2023/06/26 00:57:38;;;;;;;50.28;8.75;;;30.20;49.30;;;;;;5028213;28;20572;-66
2023/06/26 01:00:07;;;;;;;35.70;6.80;;;30.20;49.30;;;;;;5037120;28;20736;-64
2023/06/26 01:02:34;;;;;;;27.77;6.22;;;30.20;49.30;;;;;;5047129;28;20199;-69
2023/06/26 01:05:06;;;;;;;42.67;7.07;;;30.20;49.30;;;;;;5031012;28;20502;-71
2023/06/26 01:07:36;;;;;;;29.80;6.23;;;30.20;49.30;;;;;;5023272;28;20662;-67
2023/06/26 01:10:04;;;;;;;28.97;6.47;;;30.20;49.30;;;;;;5031398;28;20203;-69
2023/06/26 01:12:32;;;;;;;35.53;6.73;;;30.10;49.30;;;;;;5019277;28;20197;-64
2023/06/26 01:14:59;;;;;;;25.50;6.27;;;30.20;49.30;;;;;;5035723;28;20677;-62
2023/06/26 01:17:31;;;;;;;35.03;7.20;;;30.10;49.30;;;;;;5026653;28;20197;-65
2023/06/26 01:19:59;;;;;;;35.53;7.13;;;30.10;49.30;;;;;;5030642;28;20197;-65
2023/06/26 01:22:32;;;;;;;40.13;7.43;;;30.10;49.30;;;;;;5033424;28;20204;-65
2023/06/26 01:25:12;;;;;;;27.10;6.37;;;30.10;49.30;;;;;;5009134;28;20208;-63
2023/06/26 01:27:42;;;;;;;49.80;8.87;;;30.10;49.30;;;;;;5008359;28;20208;-67
2023/06/26 01:30:11;;;;;;;35.53;6.77;;;30.10;49.30;;;;;;5011456;28;20206;-66
2023/06/26 01:32:38;;;;;;;26.65;6.38;;;30.10;49.30;;;;;;5011843;28;20236;-63
2023/06/26 01:35:07;;;;;;;34.10;7.22;;;30.10;49.40;;;;;;5021179;28;20211;-62
2023/06/26 01:37:34;;;;;;;33.03;7.17;;;30.10;49.40;;;;;;5014790;28;20316;-62
2023/06/26 01:40:05;;;;;;;41.13;7.37;;;30.10;49.40;;;;;;5021847;28;20645;-64
2023/06/26 01:42:32;;;;;;;51.15;8.48;;;30.10;49.40;;;;;;5022762;28;20292;-61
2023/06/26 01:45:03;;;;;;;35.03;6.93;;;30.10;49.40;;;;;;5008871;28;20212;-62
2023/06/26 01:47:33;;;;;;;29.93;6.33;;;30.00;49.40;;;;;;5009060;28;20223;-62
2023/06/26 01:50:07;;;;;;;49.73;7.57;;;30.00;49.40;;;;;;5023892;28;20224;-65
2023/06/26 01:52:40;;;;;;;24.90;6.47;;;30.10;49.50;;;;;;5037841;28;20202;-69
2023/06/26 01:55:16;;;;;;;37.67;7.07;;;30.10;49.50;;;;;;5019509;28;20199;-70
2023/06/26 01:57:43;;;;;;;28.47;6.23;;;30.00;49.40;;;;;;5028072;28;20208;-71
2023/06/26 02:00:14;;;;;;;27.57;6.20;;;30.00;49.40;;;;;;5017984;28;20212;-71
2023/06/26 02:02:42;;;;;;;30.67;6.57;;;30.00;49.50;;;;;;5017372;28;20207;-61
2023/06/26 02:05:09;;;;;;;30.97;6.53;;;30.00;49.50;;;;;;5036929;28;20204;-62
2023/06/26 02:07:36;;;;;;;33.97;6.87;;;30.00;49.50;;;;;;5032495;28;20205;-61
2023/06/26 02:10:03;;;;;;;35.60;7.20;;;30.00;49.50;;;;;;5008939;28;20212;-62
2023/06/26 02:12:30;;;;;;;35.73;6.83;;;30.00;49.50;;;;;;5032612;28;20212;-62
2023/06/26 02:14:57;;;;;;;35.20;7.50;;;29.90;49.50;;;;;;5033916;28;20224;-66
2023/06/26 02:17:25;;;;;;;50.65;8.57;;;30.00;49.50;;;;;;5026136;28;20283;-62
2023/06/26 02:19:52;;;;;;;37.58;7.30;;;29.90;49.50;;;;;;5042014;28;20235;-62
2023/06/26 02:22:19;;;;;;;38.50;7.30;;;29.90;49.50;;;;;;5044638;28;20192;-64
2023/06/26 02:24:46;;;;;;;37.40;7.27;;;29.90;49.50;;;;;;5039670;28;20193;-63
2023/06/26 02:27:12;;;;;;;26.60;6.07;;;29.90;49.50;;;;;;5046743;28;20208;-65
2023/06/26 02:29:41;;;;;;;33.53;7.00;;;29.90;49.50;;;;;;5041750;28;20642;-63
2023/06/26 02:32:08;;;;;;;32.43;6.80;;;29.90;49.60;;;;;;5040838;28;20280;-62
2023/06/26 02:34:36;;;;;;;44.53;7.97;;;29.90;49.50;;;;;;5042385;28;20289;-64
2023/06/26 02:37:03;;;;;;;41.00;7.27;;;29.90;49.50;;;;;;5039657;28;20578;-62
2023/06/26 02:39:30;;;;;;;33.93;6.27;;;29.90;49.50;;;;;;5022483;28;20712;-63
2023/06/26 02:41:57;;;;;;;40.63;7.63;;;29.90;49.60;;;;;;5023789;28;20208;-61
2023/06/26 02:44:24;;;;;;;32.03;6.67;;;29.90;49.60;;;;;;5034104;28;20193;-65
2023/06/26 02:46:51;;;;;;;53.80;8.53;;;29.80;49.60;;;;;;5033278;28;20200;-68
2023/06/26 02:49:18;;;;;;;35.27;7.23;;;29.80;49.50;;;;;;5021011;28;20212;-63
2023/06/26 02:51:46;;;;;;;34.40;6.87;;;29.80;49.60;;;;;;5008038;28;20201;-68
2023/06/26 02:54:13;;;;;;;35.13;7.00;;;29.80;49.50;;;;;;5011938;28;20216;-69
2023/06/26 02:56:40;;;;;;;52.20;8.83;;;29.80;49.60;;;;;;5022473;28;20512;-68
2023/06/26 02:59:06;;;;;;;74.43;10.10;;;29.80;49.60;;;;;;5040926;28;20326;-64
2023/06/26 03:01:33;;;;;;;46.93;8.03;;;29.80;49.60;;;;;;5018212;28;20688;-64
2023/06/26 03:04:00;;;;;;;34.77;6.73;;;29.80;49.60;;;;;;5036708;28;20207;-70
2023/06/26 03:06:27;;;;;;;65.72;9.90;;;29.80;49.60;;;;;;5043891;28;20196;-65
2023/06/26 03:08:55;;;;;;;35.13;7.17;;;29.80;49.60;;;;;;5020703;28;20583;-66
2023/06/26 03:11:22;;;;;;;36.23;7.03;;;29.70;49.50;;;;;;5031919;28;20198;-62
2023/06/26 03:13:49;;;;;;;42.67;7.73;;;29.70;49.50;;;;;;5011480;28;20206;-61
2023/06/26 03:16:16;;;;;;;33.10;6.83;;;29.70;50.10;;;;;;5030476;28;20228;-68
2023/06/26 03:18:43;;;;;;;39.30;7.33;;;29.70;49.50;;;;;;5021389;28;20236;-67
2023/06/26 03:21:10;;;;;;;40.77;7.50;;;29.70;49.50;;;;;;5038170;28;20221;-69
2023/06/26 03:23:36;;;;;;;24.90;6.33;;;29.60;49.40;;;;;;5011274;28;20212;-65
2023/06/26 03:26:05;;;;;;;40.17;6.87;;;29.60;49.40;;;;;;5028012;28;20204;-63
2023/06/26 03:28:32;;;;;;;26.27;5.97;;;29.60;49.40;;;;;;5038905;28;20321;-70
2023/06/26 03:30:58;;;;;;;27.23;6.80;;;29.60;49.40;;;;;;5035035;28;20502;-70
2023/06/26 03:33:26;;;;;;;33.67;6.83;;;29.60;49.40;;;;;;5007077;28;20198;-70
2023/06/26 03:35:52;;;;;;;27.60;6.00;;;29.60;49.40;;;;;;5011210;28;20210;-65
2023/06/26 03:38:19;;;;;;;36.27;6.30;;;29.60;49.40;;;;;;5016907;28;20665;-68
2023/06/26 03:40:46;;;;;;;35.57;6.90;;;29.60;49.40;;;;;;5028027;28;20211;-66
2023/06/26 03:43:15;;;;;;;57.70;8.47;;;29.50;49.30;;;;;;5031754;28;20204;-68
2023/06/26 03:45:41;;;;;;;35.40;6.60;;;29.50;49.30;;;;;;5024729;28;20197;-68
2023/06/26 03:48:08;;;;;;;34.33;6.63;;;29.50;49.30;;;;;;5017758;28;20209;-67
2023/06/26 03:50:35;;;;;;;54.17;8.23;;;29.50;49.30;;;;;;5025794;28;20209;-61
2023/06/26 03:53:02;;;;;;;28.97;6.10;;;29.40;49.20;;;;;;5033624;28;20208;-63
2023/06/26 03:55:29;;;;;;;43.50;7.20;;;29.40;49.20;;;;;;5023026;28;20656;-61
2023/06/26 03:57:56;;;;;;;54.73;8.33;;;29.40;49.20;;;;;;5014749;28;20687;-65
2023/06/26 04:00:24;;;;;;;30.03;5.83;;;29.40;49.20;;;;;;5017469;28;20217;-62
2023/06/26 04:02:51;;;;;;;31.10;5.80;;;29.40;49.10;;;;;;5010406;28;20193;-64
2023/06/26 04:05:18;;;;;;;32.10;6.00;;;29.40;49.20;;;;;;5029218;28;20207;-69
2023/06/26 04:07:45;;;;;;;35.73;6.43;;;29.40;49.10;;;;;;5025935;28;20215;-70
2023/06/26 04:10:12;;;;;;;33.77;6.53;;;29.40;49.10;;;;;;5050715;28;20201;-67
2023/06/26 04:12:39;;;;;;;30.53;6.03;;;29.40;49.10;;;;;;5032516;28;20197;-71
2023/06/26 04:15:07;;;;;;;25.70;5.20;;;29.30;49.00;;;;;;5034007;28;20227;-64
2023/06/26 04:17:35;;;;;;;46.03;7.00;;;29.40;49.00;;;;;;5042426;28;20207;-65
2023/06/26 04:20:06;;;;;;;29.87;5.90;;;29.30;49.00;;;;;;5043447;28;20226;-66
2023/06/26 04:22:33;;;;;;;31.30;6.03;;;29.40;49.00;;;;;;5050321;28;20297;-61
2023/06/26 04:25:01;;;;;;;33.30;6.00;;;29.30;49.00;;;;;;5030001;28;20235;-62
2023/06/26 04:27:28;;;;;;;26.43;5.37;;;29.30;49.00;;;;;;5050212;28;20204;-61
2023/06/26 04:29:54;;;;;;;56.67;8.17;;;29.30;49.00;;;;;;5046470;28;20204;-62
2023/06/26 04:32:21;;;;;;;36.10;6.30;;;29.30;49.00;;;;;;5049899;28;20191;-61
2023/06/26 04:34:49;;;;;;;28.33;6.10;;;29.30;48.90;;;;;;5044654;28;20206;-61
2023/06/26 04:37:17;;;;;;;38.83;6.03;;;29.30;48.90;;;;;;5035419;28;20519;-62
2023/06/26 04:39:44;;;;;;;32.70;6.07;;;29.20;48.90;;;;;;5009775;28;20854;-62
2023/06/26 04:42:11;;;;;;;33.53;6.07;;;29.20;48.90;;;;;;5010753;28;20204;-62
2023/06/26 04:44:40;;;;;;;27.03;5.20;;;29.20;48.90;;;;;;5044682;28;20620;-64
2023/06/26 04:47:07;;;;;;;30.83;5.63;;;29.20;48.90;;;;;;5034910;28;20253;-61
2023/06/26 04:49:34;;;;;;;31.87;5.70;;;29.20;48.90;;;;;;5030664;28;20231;-62
2023/06/26 04:52:03;;;;;;;34.00;6.53;;;29.10;48.90;;;;;;5040367;28;20658;-61
2023/06/26 04:54:30;;;;;;;42.57;6.90;;;29.10;48.80;;;;;;5025129;28;20288;-62
2023/06/26 04:56:57;;;;;;;42.87;6.83;;;29.10;48.80;;;;;;5009744;28;20210;-61
2023/06/26 04:59:24;;;;;;;33.93;6.13;;;29.10;48.80;;;;;;5030040;28;20237;-64
2023/06/26 05:01:50;;;;;;;41.77;6.57;;;29.10;48.80;;;;;;5009642;28;20216;-63
2023/06/26 05:04:17;;;;;;;47.20;7.23;;;29.10;48.80;;;;;;5029986;28;20200;-64
2023/06/26 05:06:44;;;;;;;31.30;5.93;;;29.10;48.80;;;;;;5010669;28;20990;-68
2023/06/26 05:09:13;;;;;;;37.17;6.77;;;29.00;48.80;;;;;;5013934;28;20207;-65
2023/06/26 05:11:40;;;;;;;36.27;6.07;;;29.00;48.70;;;;;;5016719;28;20201;-73
2023/06/26 05:14:08;;;;;;;34.67;6.13;;;29.00;48.70;;;;;;5037564;28;20196;-71
2023/06/26 05:16:36;;;;;;;46.00;7.07;;;29.10;48.80;;;;;;5024950;28;20229;-63
2023/06/26 05:19:02;;;;;;;34.90;6.27;;;29.00;48.80;;;;;;5009084;28;20197;-66
2023/06/26 05:21:30;;;;;;;36.77;6.27;;;29.10;48.80;;;;;;5025991;28;20246;-62
2023/06/26 05:23:58;;;;;;;33.70;5.87;;;29.00;48.80;;;;;;5021884;28;20670;-64
2023/06/26 05:26:27;;;;;;;49.30;7.37;;;29.00;48.70;;;;;;5017449;28;20206;-65
2023/06/26 05:28:55;;;;;;;33.67;6.20;;;29.00;48.70;;;;;;5015358;28;20292;-63
2023/06/26 05:31:22;;;;;;;41.40;6.53;;;29.00;48.80;;;;;;5019532;28;20209;-61
2023/06/26 05:33:50;;;;;;;33.60;6.10;;;29.00;48.80;;;;;;5013671;28;20220;-62
2023/06/26 05:36:19;;;;;;;26.53;5.43;;;29.00;48.80;;;;;;5027199;28;20208;-61
2023/06/26 05:38:46;;;;;;;31.83;5.77;;;29.00;48.80;;;;;;5018830;28;20209;-68
2023/06/26 05:41:14;;;;;;;29.03;5.57;;;29.00;48.80;;;;;;5012288;28;20232;-61
2023/06/26 05:43:42;;;;;;;33.60;6.00;;;28.90;48.60;;;;;;5023858;28;20568;-65
2023/06/26 05:46:09;;;;;;;28.53;5.27;;;29.00;48.70;;;;;;5012214;28;20206;-68
2023/06/26 05:48:35;;;;;;;32.20;6.00;;;28.90;48.70;;;;;;5012919;28;20205;-65
2023/06/26 05:51:03;;;;;;;28.47;5.70;;;29.00;48.80;;;;;;5015585;28;20665;-63
2023/06/26 05:53:31;;;;;;;35.77;5.87;;;28.90;48.70;;;;;;5008182;28;20275;-62
2023/06/26 05:55:58;;;;;;;41.60;6.73;;;28.90;48.70;;;;;;5026007;28;20208;-63
2023/06/26 05:58:28;;;;;;;37.17;6.33;;;28.90;48.70;;;;;;5023624;28;20201;-65
2023/06/26 06:00:56;;;;;;;70.77;9.30;;;28.90;48.80;;;;;;5028289;28;20323;-61
2023/06/26 06:03:24;;;;;;;33.37;5.87;;;28.90;48.80;;;;;;5023448;28;20200;-64
2023/06/26 06:05:50;;;;;;;49.30;7.57;;;28.90;48.80;;;;;;5025870;28;20203;-72
2023/06/26 06:08:17;;;;;;;28.30;5.47;;;28.90;48.80;;;;;;5034341;28;20664;-62
2023/06/26 06:10:44;;;;;;;49.30;7.50;;;28.90;48.80;;;;;;5032914;28;20258;-72
2023/06/26 06:13:11;;;;;;;33.90;6.07;;;28.90;48.80;;;;;;5039023;28;20200;-71
2023/06/26 06:15:38;;;;;;;30.23;5.60;;;28.90;48.80;;;;;;5048428;28;20224;-66
2023/06/26 06:18:06;;;;;;;42.87;8.40;;;29.00;48.90;;;;;;5025632;28;20564;-72
2023/06/26 06:20:33;;;;;;;48.63;9.20;;;29.00;48.80;;;;;;5025499;28;20232;-82
2023/06/26 06:23:00;;;;;;;34.07;7.13;;;28.90;48.80;;;;;;5019311;28;20589;-66
2023/06/26 06:25:27;;;;;;;28.57;6.23;;;29.00;48.80;;;;;;5027307;28;20209;-74
2023/06/26 06:27:54;;;;;;;53.30;8.27;;;29.00;48.60;;;;;;5009065;28;20313;-75
2023/06/26 06:30:21;;;;;;;28.93;5.73;;;29.00;48.60;;;;;;5044733;28;20204;-71
2023/06/26 06:32:50;;;;;;;71.07;9.23;;;28.90;48.50;;;;;;5042939;28;20200;-70
2023/06/26 06:35:18;;;;;;;41.00;6.93;;;28.90;48.50;;;;;;5011625;28;20208;-69
2023/06/26 06:37:45;;;;;;;32.57;6.00;;;28.90;48.50;;;;;;5031782;28;20201;-66
2023/06/26 06:40:13;;;;;;;28.23;5.50;;;29.00;48.60;;;;;;5019123;28;20217;-68
2023/06/26 06:42:40;;;;;;;23.37;5.27;;;28.90;48.50;;;;;;5018792;28;20755;-75
2023/06/26 06:45:07;;;;;;;36.43;6.10;;;28.90;48.50;;;;;;5036332;28;20205;-76
2023/06/26 06:47:34;;;;;;;30.43;5.93;;;28.90;48.50;;;;;;5026893;28;20212;-67
2023/06/26 06:50:07;;;;;;;55.90;8.43;;;28.90;48.50;;;;;;5007533;28;20284;-75
2023/06/26 06:52:37;;;;;;;30.03;5.83;;;28.90;48.50;;;;;;5018567;28;20664;-69
2023/06/26 06:55:06;;;;;;;27.67;5.47;;;28.90;48.50;;;;;;5025871;28;20291;-70
2023/06/26 06:57:35;;;;;;;25.27;5.20;;;28.90;48.50;;;;;;5023090;28;20201;-67
2023/06/26 07:00:04;;;;;;;32.07;6.30;;;28.90;48.50;;;;;;5015638;28;20236;-72
2023/06/26 07:02:31;;;;;;;30.70;5.47;;;28.90;48.50;;;;;;5025865;28;20201;-74
2023/06/26 07:04:58;;;;;;;28.03;5.60;;;28.90;48.50;;;;;;5039837;28;20201;-77
2023/06/26 07:07:30;;;;;;;72.30;9.83;;;28.90;48.50;;;;;;5020792;28;20208;-63
2023/06/26 07:09:59;;;;;;;36.90;6.33;;;28.90;48.50;;;;;;5029116;28;20207;-63
2023/06/26 07:12:25;;;;;;;47.67;7.50;;;28.90;48.50;;;;;;5037788;28;20215;-70
2023/06/26 07:14:53;;;;;;;24.37;5.33;;;28.90;48.50;;;;;;5022584;28;20217;-65
2023/06/26 07:17:20;;;;;;;49.27;7.07;;;28.90;48.50;;;;;;5021332;28;20275;-62
2023/06/26 07:19:47;;;;;;;32.83;5.77;;;28.90;48.50;;;;;;5025223;28;20344;-58
2023/06/26 07:22:14;;;;;;;30.20;5.63;;;28.80;48.40;;;;;;5024313;28;20198;-72
2023/06/26 07:24:41;;;;;;;44.50;6.93;;;28.90;48.50;;;;;;5010915;28;20201;-70
2023/06/26 07:27:10;;;;;;;28.43;5.70;;;28.90;48.50;;;;;;5029592;28;20211;-66
2023/06/26 07:29:37;;;;;;;27.23;5.60;;;28.90;48.50;;;;;;5015508;28;20212;-74
2023/06/26 07:32:04;;;;;;;46.17;6.97;;;28.90;49.10;;;;;;5043673;28;20211;-70
2023/06/26 07:34:30;;;;;;;28.73;5.73;;;28.90;48.50;;;;;;5051621;28;20195;-71
2023/06/26 07:36:57;;;;;;;38.80;6.50;;;28.90;48.50;;;;;;5043664;28;20276;-61
2023/06/26 07:39:24;;;;;;;31.83;6.03;;;28.90;48.50;;;;;;5051624;28;20193;-74
2023/06/26 07:41:51;;;;;;;38.90;6.57;;;28.90;48.50;;;;;;5048611;28;20231;-67
2023/06/26 07:44:19;;;;;;;46.83;7.77;;;28.90;48.50;;;;;;5034015;28;20197;-68
2023/06/26 07:46:46;;;;;;;29.67;5.47;;;28.90;48.50;;;;;;5010315;28;20208;-63
2023/06/26 07:49:13;;;;;;;33.37;5.93;;;29.00;48.50;;;;;;5012789;28;20209;-71
2023/06/26 07:51:40;;;;;;;28.00;5.50;;;28.90;48.50;;;;;;5031318;28;20212;-73
2023/06/26 07:54:07;;;;;;;26.73;5.50;;;29.00;48.50;;;;;;5034866;28;20847;-71
2023/06/26 07:56:52;;;;;;;27.47;6.07;;;29.00;48.50;;;;;;5041857;28;20212;-69
2023/06/26 07:59:21;;;;;;;55.17;8.47;;;29.00;48.50;;;;;;5026580;28;20207;-61
2023/06/26 08:01:48;;;;;;;28.30;5.87;;;29.00;48.40;;;;;;5021095;28;20268;-71
2023/06/26 08:04:15;;;;;;;28.70;5.70;;;29.00;48.40;;;;;;5024418;28;20207;-71
2023/06/26 08:06:42;;;;;;;42.97;6.93;;;29.00;48.30;;;;;;5013264;28;20204;-71
2023/06/26 08:09:09;;;;;;;26.90;5.37;;;29.00;48.30;;;;;;5010972;28;20260;-70
2023/06/26 08:11:36;;;;;;;34.93;6.43;;;29.00;47.90;;;;;;5035770;28;20289;-68
2023/06/26 08:14:03;;;;;;;21.07;5.30;;;29.00;47.80;;;;;;5019685;28;20225;-70
2023/06/26 08:16:31;;;;;;;28.67;5.93;;;29.00;47.80;;;;;;5011285;28;20209;-69
2023/06/26 08:18:58;;;;;;;23.87;5.73;;;29.00;48.40;;;;;;5011916;28;20205;-66
2023/06/26 08:21:25;;;;;;;75.90;9.67;;;29.00;47.70;;;;;;5019564;28;20220;-65
2023/06/26 08:23:52;;;;;;;40.10;7.10;;;29.00;47.60;;;;;;5019030;28;20568;-72
2023/06/26 08:26:19;;;;;;;22.57;5.30;;;28.90;47.60;;;;;;5022806;28;20221;-71
2023/06/26 08:28:46;;;;;;;34.57;6.53;;;28.90;47.60;;;;;;5024356;28;20201;-70
2023/06/26 08:31:13;;;;;;;73.63;9.93;;;28.90;47.60;;;;;;5025693;28;20842;-62
2023/06/26 08:33:41;;;;;;;27.80;5.50;;;28.80;47.50;;;;;;5024082;28;20205;-66
2023/06/26 08:36:08;;;;;;;35.13;6.57;;;28.80;47.50;;;;;;5018512;28;20217;-77
2023/06/26 08:38:36;;;;;;;30.03;6.20;;;28.70;47.60;;;;;;5010373;28;20981;-72
2023/06/26 08:41:03;;;;;;;38.20;6.73;;;28.70;47.70;;;;;;5021313;28;20209;-62
2023/06/26 08:43:30;;;;;;;26.53;6.00;;;28.70;47.80;;;;;;5015393;28;20324;-66
2023/06/26 08:45:57;;;;;;;23.90;5.20;;;28.60;47.90;;;;;;5010371;28;20201;-67
2023/06/26 08:48:24;;;;;;;29.77;5.97;;;28.60;48.00;;;;;;5020476;28;20204;-68
2023/06/26 08:50:54;;;;;;;31.50;5.87;;;28.60;48.00;;;;;;5030052;28;20205;-72
2023/06/26 08:53:28;;;;;;;26.20;5.93;;;28.50;48.00;;;;;;5024831;28;20193;-62
2023/06/26 08:55:58;;;;;;;19.43;5.20;;;28.50;48.00;;;;;;5014889;28;20206;-67
2023/06/26 08:58:25;;;;;;;31.77;6.37;;;28.50;48.00;;;;;;5023654;28;20633;-62
2023/06/26 09:00:52;;;;;;;35.63;6.43;;;28.50;48.20;;;;;;5028550;28;20217;-65
2023/06/26 09:03:19;;;;;;;28.30;5.87;;;28.50;48.30;;;;;;5029421;28;20475;-70
2023/06/26 09:05:46;;;;;;;26.07;5.37;;;28.60;48.40;;;;;;5021969;28;20284;-62
2023/06/26 09:08:14;;;;;;;27.17;5.70;;;28.50;48.80;;;;;;5021263;28;20223;-67
2023/06/26 09:10:41;;;;;;;41.87;6.97;;;28.60;48.30;;;;;;5020015;28;20208;-62
2023/06/26 09:13:09;;;;;;;22.93;5.33;;;28.60;47.90;;;;;;5014094;28;20215;-62
2023/06/26 09:15:40;;;;;;;31.03;6.03;;;28.60;47.70;;;;;;5012946;28;20308;-62
2023/06/26 09:18:07;;;;;;;22.53;5.53;;;28.60;47.60;;;;;;5009848;28;20259;-65
2023/06/26 09:20:34;;;;;;;45.77;7.27;;;28.50;47.60;;;;;;5010682;28;20217;-68
2023/06/26 09:23:02;;;;;;;32.43;6.07;;;28.50;47.60;;;;;;5029723;28;20211;-65
2023/06/26 09:25:30;;;;;;;28.93;5.53;;;28.50;47.60;;;;;;5016176;28;20679;-65
2023/06/26 09:27:58;;;;;;;29.93;5.90;;;28.60;47.70;;;;;;5009838;28;20212;-65
2023/06/26 09:30:25;;;;;;;25.43;5.57;;;28.50;47.70;;;;;;5009303;28;20205;-68
2023/06/26 09:32:54;;;;;;;47.13;7.23;;;28.60;47.70;;;;;;5009396;28;20205;-64
2023/06/26 09:35:21;;;;;;;27.80;5.70;;;28.50;47.60;;;;;;5024560;28;20205;-66
2023/06/26 09:37:48;;;;;;;26.13;5.33;;;28.50;47.60;;;;;;5026473;28;20205;-62
2023/06/26 09:40:16;;;;;;;33.70;6.20;;;28.50;47.50;;;;;;5010969;28;20193;-66
2023/06/26 09:42:44;;;;;;;26.40;5.43;;;28.50;47.50;;;;;;5027268;28;21235;-67
2023/06/26 09:45:20;;;;;;;48.50;7.13;;;28.50;47.30;;;;;;5010346;28;20666;-62
2023/06/26 09:47:47;;;;;;;33.40;5.97;;;28.50;47.30;;;;;;5013336;28;20211;-62
2023/06/26 09:50:25;;;;;;;43.73;6.83;;;28.50;47.30;;;;;;5009567;28;20186;-63
2023/06/26 09:52:52;;;;;;;26.00;5.87;;;28.50;46.90;;;;;;5022095;28;20248;-65
2023/06/26 09:55:21;;;;;;;25.50;5.53;;;28.50;47.10;;;;;;5008129;28;20209;-62
2023/06/26 09:57:50;;;;;;;28.10;5.67;;;28.50;47.10;;;;;;5008803;28;20213;-65
2023/06/26 10:00:18;;;;;;;33.70;6.20;;;28.50;47.10;;;;;;5015896;28;20211;-64
2023/06/26 10:02:45;;;;;;;81.17;10.17;;;28.50;47.20;;;;;;5020729;28;20210;-63
2023/06/26 10:05:12;;;;;;;36.27;6.53;;;28.60;47.40;;;;;;5025238;28;20661;-62
2023/06/26 10:07:39;;;;;;;35.27;9.20;;;28.50;47.50;;;;;;5022814;28;20212;-65
2023/06/26 10:10:09;;;;;;;52.03;15.00;;;28.50;47.60;;;;;;5025907;28;20201;-64
2023/06/26 10:12:36;;;;;;;47.13;12.53;;;28.50;47.60;;;;;;5028930;28;20304;-66
2023/06/26 10:15:06;;;;;;;43.53;11.50;;;28.60;47.80;;;;;;5016908;28;20661;-61
2023/06/26 10:17:37;;;;;;;37.07;9.37;;;28.70;47.90;;;;;;5008823;28;20193;-66
2023/06/26 10:20:07;;;;;;;28.73;7.23;;;28.70;47.80;;;;;;5011414;28;20717;-63
2023/06/26 10:22:38;;;;;;;30.23;6.87;;;28.70;47.80;;;;;;5037379;28;20227;-64
2023/06/26 10:25:08;;;;;;;38.93;7.17;;;28.70;47.60;;;;;;5047471;28;20196;-67
2023/06/26 10:27:38;;;;;;;30.10;6.50;;;28.80;47.60;;;;;;5025013;28;20205;-63
2023/06/26 10:30:12;;;;;;;38.47;6.70;;;28.80;47.20;;;;;;5020258;28;20891;-70
2023/06/26 10:32:40;;;;;;;28.03;5.63;;;28.90;47.20;;;;;;5010264;28;20748;-65
2023/06/26 10:35:08;;;;;;;23.80;5.27;;;28.90;47.00;;;;;;5024841;28;20540;-63
2023/06/26 10:37:45;;;;;;;59.57;8.50;;;29.00;46.90;;;;;;5028016;28;20209;-66
2023/06/26 10:40:13;;;;;;;49.93;7.73;;;29.00;46.50;;;;;;5031455;28;20651;-63
2023/06/26 10:42:40;;;;;;;36.73;6.63;;;29.00;46.80;;;;;;5008907;28;20274;-66
2023/06/26 10:45:14;;;;;;;32.73;6.20;;;29.10;46.90;;;;;;5016730;28;20282;-77
2023/06/26 10:47:42;;;;;;;28.33;5.33;;;29.10;46.60;;;;;;5030312;28;20201;-74
2023/06/26 10:50:24;;;;;;;26.63;5.63;;;29.10;46.60;;;;;;5027441;28;20197;-70
2023/06/26 10:53:19;;;;;;;30.97;6.70;;;29.10;46.30;;;;;;5027249;28;20223;-70
2023/06/26 10:55:50;;;;;;;22.97;5.33;;;29.10;46.10;;;;;;5028191;28;20205;-73
2023/06/26 10:58:43;;;;;;;63.43;8.53;;;29.10;46.20;;;;;;5015682;28;20292;-68
2023/06/26 11:01:22;;;;;;;57.43;8.03;;;29.10;46.30;;;;;;5016122;28;20287;-73
2023/06/26 11:04:02;;;;;;;39.60;6.83;;;29.10;46.30;;;;;;5022105;28;20205;-72
2023/06/26 11:06:29;;;;;;;60.23;8.57;;;29.10;46.50;;;;;;5011123;28;20764;-69
2023/06/26 11:09:01;;;;;;;43.00;6.90;;;29.10;47.30;;;;;;5019368;28;20204;-76
2023/06/26 11:12:07;;;;;;;56.80;8.23;;;29.10;46.60;;;;;;5011504;28;20216;-69
2023/06/26 11:14:34;;;;;;;66.73;8.97;;;29.10;46.90;;;;;;5011814;28;21806;-69
2023/06/26 11:17:06;;;;;;;33.20;5.83;;;29.10;47.00;;;;;;5039627;28;20268;-73
2023/06/26 11:19:33;;;;;;;46.93;7.33;;;29.10;46.70;;;;;;5015762;28;20205;-72
2023/06/26 11:22:06;;;;;;;69.00;9.20;;;29.10;46.80;;;;;;5010896;28;20332;-63
2023/06/26 11:24:33;;;;;;;45.50;7.37;;;29.10;47.00;;;;;;5023093;28;20950;-67
2023/06/26 11:27:05;;;;;;;71.00;9.47;;;29.10;46.90;;;;;;5023227;28;20601;-67
2023/06/26 11:29:36;;;;;;;59.17;8.33;;;29.10;46.70;;;;;;5011801;28;20196;-71
2023/06/26 11:32:06;;;;;;;57.77;8.47;;;29.10;46.80;;;;;;5024467;28;20306;-70
2023/06/26 11:34:34;;;;;;;49.67;7.50;;;29.10;46.50;;;;;;5008187;28;20228;-68
2023/06/26 11:37:02;;;;;;;35.70;6.20;;;29.10;46.30;;;;;;5010926;28;20744;-68
2023/06/26 11:39:29;;;;;;;47.17;7.23;;;29.10;46.10;;;;;;5023663;28;20209;-64
2023/06/26 11:41:56;;;;;;;44.10;7.13;;;29.00;46.20;;;;;;5019955;28;20248;-71
2023/06/26 11:44:23;;;;;;;37.97;6.77;;;29.00;46.00;;;;;;5007136;28;20198;-63
2023/06/26 11:46:55;;;;;;;36.27;6.47;;;29.00;46.50;;;;;;5007410;28;20945;-66
2023/06/26 11:49:26;;;;;;;39.43;6.60;;;29.00;46.20;;;;;;5022035;28;20202;-69
2023/06/26 11:51:54;;;;;;;30.87;5.87;;;29.00;46.20;;;;;;5007076;28;20197;-64
2023/06/26 11:54:30;;;;;;;45.10;7.00;;;29.00;46.40;;;;;;5006581;28;20214;-68
2023/06/26 11:56:58;;;;;;;39.87;6.60;;;29.00;46.60;;;;;;5007300;28;20769;-66
2023/06/26 11:59:26;;;;;;;41.90;6.70;;;29.00;46.30;;;;;;5007948;28;20297;-65
2023/06/26 12:01:53;;;;;;;35.87;6.07;;;29.00;46.40;;;;;;5007074;28;20309;-73
2023/06/26 12:04:21;;;;;;;38.30;6.30;;;29.00;46.60;;;;;;5006490;28;20198;-66
2023/06/26 12:06:52;;;;;;;38.83;6.50;;;29.00;46.60;;;;;;5011499;28;20591;-74
2023/06/26 12:09:20;;;;;;;35.37;6.50;;;29.00;46.30;;;;;;5026808;28;20615;-63
2023/06/26 12:11:49;;;;;;;44.23;6.87;;;29.00;47.00;;;;;;5017862;28;20201;-66
2023/06/26 12:14:18;;;;;;;36.07;6.30;;;29.00;46.60;;;;;;5006962;28;20229;-70
2023/06/26 12:16:45;;;;;;;32.20;5.87;;;29.00;46.50;;;;;;5009305;28;20252;-65
2023/06/26 12:19:12;;;;;;;35.63;6.00;;;29.00;47.10;;;;;;5014324;28;20236;-67
2023/06/26 12:21:47;;;;;;;30.20;5.70;;;29.00;46.50;;;;;;5024872;28;20296;-69
2023/06/26 12:24:17;;;;;;;29.23;5.53;;;29.00;46.60;;;;;;5021849;28;20203;-64
2023/06/26 12:26:45;;;;;;;41.57;6.90;;;29.00;46.50;;;;;;5029992;28;20204;-73
2023/06/26 12:29:13;;;;;;;36.47;6.60;;;29.00;46.60;;;;;;5030513;28;20221;-70
2023/06/26 12:31:42;;;;;;;32.77;5.87;;;29.00;46.60;;;;;;5030251;28;20646;-64
2023/06/26 12:34:14;;;;;;;36.00;6.23;;;29.00;46.60;;;;;;5029124;28;20627;-74
2023/06/26 12:36:42;;;;;;;30.10;5.63;;;29.10;46.60;;;;;;5029088;28;20220;-67
2023/06/26 12:39:11;;;;;;;35.37;6.13;;;29.10;46.60;;;;;;5030008;28;20200;-67
2023/06/26 12:41:47;;;;;;;36.50;6.47;;;29.10;46.70;;;;;;5029478;28;20272;-63